sensor_id;sensor_type;location;lat;lon;timestamp;P1;durP1;ratioP1;P2;durP2;ratioP2
14592;SDS011;7383;52.354;9.756;2023-04-16T00:01:06;13.60;;;12.35;;
14592;SDS011;7383;52.354;9.756;2023-04-16T00:03:33;13.20;;;12.00;;
14592;SDS011;7383;52.354;9.756;2023-04-16T00:06:02;12.95;;;11.85;;
14592;SDS011;7383;52.354;9.756;2023-04-16T00:08:31;13.88;;;12.50;;
14592;SDS011;7383;52.354;9.756;2023-04-16T00:11:01;13.00;;;11.93;;
14592;SDS011;7383;52.354;9.756;2023-04-16T00:13:29;12.68;;;11.68;;
14592;SDS011;7383;52.354;9.756;2023-04-16T00:15:56;13.02;;;11.82;;
14592;SDS011;7383;52.354;9.756;2023-04-16T00:18:24;13.13;;;12.00;;
14592;SDS011;7383;52.354;9.756;2023-04-16T00:20:53;14.88;;;13.52;;
14592;SDS011;7383;52.354;9.756;2023-04-16T00:23:20;13.70;;;12.50;;
14592;SDS011;7383;52.354;9.756;2023-04-16T00:25:51;12.82;;;11.68;;
14592;SDS011;7383;52.354;9.756;2023-04-16T00:28:29;12.63;;;11.57;;
14592;SDS011;7383;52.354;9.756;2023-04-16T00:30:59;12.52;;;11.43;;
14592;SDS011;7383;52.354;9.756;2023-04-16T00:33:33;12.98;;;11.77;;
14592;SDS011;7383;52.354;9.756;2023-04-16T00:38:04;13.82;;;12.60;;
14592;SDS011;7383;52.354;9.756;2023-04-16T00:39:18;13.10;;;11.95;;
14592;SDS011;7383;52.354;9.756;2023-04-16T00:42:22;13.18;;;11.93;;
14592;SDS011;7383;52.354;9.756;2023-04-16T00:45:19;14.07;;;12.82;;
14592;SDS011;7383;52.354;9.756;2023-04-16T00:48:06;14.20;;;12.90;;
14592;SDS011;7383;52.354;9.756;2023-04-16T00:56:49;14.05;;;12.85;;
14592;SDS011;7383;52.354;9.756;2023-04-16T00:59:37;13.85;;;12.65;;
14592;SDS011;7383;52.354;9.756;2023-04-16T01:02:26;13.90;;;12.60;;
14592;SDS011;7383;52.354;9.756;2023-04-16T01:05:32;13.43;;;12.23;;
14592;SDS011;7383;52.354;9.756;2023-04-16T01:08:11;14.82;;;13.43;;
14592;SDS011;7383;52.354;9.756;2023-04-16T01:14:24;14.38;;;13.00;;
14592;SDS011;7383;52.354;9.756;2023-04-16T01:17:18;14.15;;;12.95;;
14592;SDS011;7383;52.354;9.756;2023-04-16T01:30:08;13.43;;;12.13;;
14592;SDS011;7383;52.354;9.756;2023-04-16T01:33:10;13.27;;;12.07;;
14592;SDS011;7383;52.354;9.756;2023-04-16T01:35:42;14.45;;;13.15;;
14592;SDS011;7383;52.354;9.756;2023-04-16T01:38:10;15.02;;;13.63;;
14592;SDS011;7383;52.354;9.756;2023-04-16T01:41:53;14.15;;;12.77;;
14592;SDS011;7383;52.354;9.756;2023-04-16T02:00:54;14.40;;;13.15;;
14592;SDS011;7383;52.354;9.756;2023-04-16T02:03:29;15.20;;;13.77;;
14592;SDS011;7383;52.354;9.756;2023-04-16T02:05:56;14.55;;;13.27;;
14592;SDS011;7383;52.354;9.756;2023-04-16T02:08:26;14.75;;;13.50;;
14592;SDS011;7383;52.354;9.756;2023-04-16T02:10:53;16.98;;;15.38;;
14592;SDS011;7383;52.354;9.756;2023-04-16T02:29:58;16.77;;;15.20;;
14592;SDS011;7383;52.354;9.756;2023-04-16T02:32:57;16.15;;;14.50;;
14592;SDS011;7383;52.354;9.756;2023-04-16T02:35:36;15.25;;;13.85;;
14592;SDS011;7383;52.354;9.756;2023-04-16T03:28:07;13.88;;;12.57;;
14592;SDS011;7383;52.354;9.756;2023-04-16T03:30:38;14.98;;;13.38;;
14592;SDS011;7383;52.354;9.756;2023-04-16T03:33:08;15.65;;;14.10;;
14592;SDS011;7383;52.354;9.756;2023-04-16T03:35:53;15.25;;;13.75;;
14592;SDS011;7383;52.354;9.756;2023-04-16T03:38:27;13.98;;;12.57;;
14592;SDS011;7383;52.354;9.756;2023-04-16T03:50:38;16.75;;;15.00;;
14592;SDS011;7383;52.354;9.756;2023-04-16T03:53:13;14.88;;;13.38;;
14592;SDS011;7383;52.354;9.756;2023-04-16T03:55:40;15.80;;;14.25;;
14592;SDS011;7383;52.354;9.756;2023-04-16T03:58:08;17.02;;;15.23;;
14592;SDS011;7383;52.354;9.756;2023-04-16T04:17:13;13.75;;;12.30;;
14592;SDS011;7383;52.354;9.756;2023-04-16T04:23:07;15.27;;;13.35;;
14592;SDS011;7383;52.354;9.756;2023-04-16T04:23:40;15.10;;;13.55;;
14592;SDS011;7383;52.354;9.756;2023-04-16T04:27:09;16.98;;;14.75;;
14592;SDS011;7383;52.354;9.756;2023-04-16T04:39:38;14.95;;;13.35;;
14592;SDS011;7383;52.354;9.756;2023-04-16T04:45:50;13.88;;;12.48;;
14592;SDS011;7383;52.354;9.756;2023-04-16T04:48:19;13.55;;;12.18;;
14592;SDS011;7383;52.354;9.756;2023-04-16T04:50:50;14.93;;;13.45;;
14592;SDS011;7383;52.354;9.756;2023-04-16T04:53:16;15.40;;;13.25;;
14592;SDS011;7383;52.354;9.756;2023-04-16T04:55:44;14.50;;;12.63;;
14592;SDS011;7383;52.354;9.756;2023-04-16T04:58:13;14.38;;;13.05;;
14592;SDS011;7383;52.354;9.756;2023-04-16T05:00:40;13.32;;;12.00;;
14592;SDS011;7383;52.354;9.756;2023-04-16T05:03:09;14.32;;;12.93;;
14592;SDS011;7383;52.354;9.756;2023-04-16T05:05:38;14.38;;;12.85;;
14592;SDS011;7383;52.354;9.756;2023-04-16T05:08:09;14.90;;;13.32;;
14592;SDS011;7383;52.354;9.756;2023-04-16T05:10:39;14.40;;;13.00;;
14592;SDS011;7383;52.354;9.756;2023-04-16T05:13:08;14.43;;;13.02;;
14592;SDS011;7383;52.354;9.756;2023-04-16T05:15:35;14.73;;;13.23;;
14592;SDS011;7383;52.354;9.756;2023-04-16T05:18:02;14.50;;;12.88;;
14592;SDS011;7383;52.354;9.756;2023-04-16T05:20:29;13.57;;;12.23;;
14592;SDS011;7383;52.354;9.756;2023-04-16T05:23:00;14.05;;;12.80;;
14592;SDS011;7383;52.354;9.756;2023-04-16T05:25:36;13.20;;;11.90;;
14592;SDS011;7383;52.354;9.756;2023-04-16T05:28:03;13.45;;;11.80;;
14592;SDS011;7383;52.354;9.756;2023-04-16T05:30:33;13.48;;;12.07;;
14592;SDS011;7383;52.354;9.756;2023-04-16T05:33:03;13.32;;;11.93;;
14592;SDS011;7383;52.354;9.756;2023-04-16T05:38:28;13.23;;;11.93;;
14592;SDS011;7383;52.354;9.756;2023-04-16T05:40:57;15.43;;;12.52;;
14592;SDS011;7383;52.354;9.756;2023-04-16T05:43:26;12.98;;;11.73;;
14592;SDS011;7383;52.354;9.756;2023-04-16T05:45:56;13.82;;;12.48;;
14592;SDS011;7383;52.354;9.756;2023-04-16T05:48:23;13.65;;;12.35;;
14592;SDS011;7383;52.354;9.756;2023-04-16T05:50:49;13.95;;;12.45;;
14592;SDS011;7383;52.354;9.756;2023-04-16T05:53:16;13.55;;;11.95;;
14592;SDS011;7383;52.354;9.756;2023-04-16T05:58:33;11.65;;;10.52;;
14592;SDS011;7383;52.354;9.756;2023-04-16T06:01:04;14.68;;;13.18;;
14592;SDS011;7383;52.354;9.756;2023-04-16T06:03:31;12.75;;;11.48;;
14592;SDS011;7383;52.354;9.756;2023-04-16T06:05:58;12.80;;;11.52;;
14592;SDS011;7383;52.354;9.756;2023-04-16T06:08:42;12.55;;;11.25;;
14592;SDS011;7383;52.354;9.756;2023-04-16T06:11:09;13.05;;;11.75;;
14592;SDS011;7383;52.354;9.756;2023-04-16T06:13:37;12.43;;;11.32;;
14592;SDS011;7383;52.354;9.756;2023-04-16T06:16:10;12.68;;;11.48;;
14592;SDS011;7383;52.354;9.756;2023-04-16T06:18:37;12.27;;;11.07;;
14592;SDS011;7383;52.354;9.756;2023-04-16T06:21:06;13.20;;;11.90;;
14592;SDS011;7383;52.354;9.756;2023-04-16T06:23:32;13.02;;;11.82;;
14592;SDS011;7383;52.354;9.756;2023-04-16T06:25:59;13.65;;;12.32;;
14592;SDS011;7383;52.354;9.756;2023-04-16T06:28:26;12.35;;;11.10;;
14592;SDS011;7383;52.354;9.756;2023-04-16T06:30:52;12.10;;;10.88;;
14592;SDS011;7383;52.354;9.756;2023-04-16T06:33:22;12.00;;;10.90;;
14592;SDS011;7383;52.354;9.756;2023-04-16T06:35:48;12.18;;;11.07;;
14592;SDS011;7383;52.354;9.756;2023-04-16T06:38:15;12.07;;;11.02;;
14592;SDS011;7383;52.354;9.756;2023-04-16T06:40:42;12.25;;;11.05;;
14592;SDS011;7383;52.354;9.756;2023-04-16T06:43:09;13.02;;;11.73;;
14592;SDS011;7383;52.354;9.756;2023-04-16T06:45:36;12.80;;;11.60;;
14592;SDS011;7383;52.354;9.756;2023-04-16T06:48:03;13.05;;;11.85;;
14592;SDS011;7383;52.354;9.756;2023-04-16T06:50:32;12.20;;;11.05;;
14592;SDS011;7383;52.354;9.756;2023-04-16T06:52:59;11.75;;;10.65;;
14592;SDS011;7383;52.354;9.756;2023-04-16T06:55:26;11.10;;;10.00;;
14592;SDS011;7383;52.354;9.756;2023-04-16T06:57:55;11.48;;;10.40;;
14592;SDS011;7383;52.354;9.756;2023-04-16T07:00:23;11.95;;;10.52;;
14592;SDS011;7383;52.354;9.756;2023-04-16T07:02:50;12.10;;;11.00;;
14592;SDS011;7383;52.354;9.756;2023-04-16T07:05:17;11.35;;;10.27;;
14592;SDS011;7383;52.354;9.756;2023-04-16T07:07:46;12.00;;;10.90;;
14592;SDS011;7383;52.354;9.756;2023-04-16T07:10:15;11.45;;;10.35;;
14592;SDS011;7383;52.354;9.756;2023-04-16T07:12:41;12.07;;;10.88;;
14592;SDS011;7383;52.354;9.756;2023-04-16T07:15:10;11.18;;;9.88;;
14592;SDS011;7383;52.354;9.756;2023-04-16T07:17:37;12.05;;;10.93;;
14592;SDS011;7383;52.354;9.756;2023-04-16T07:20:07;12.82;;;11.55;;
14592;SDS011;7383;52.354;9.756;2023-04-16T07:22:51;11.98;;;10.88;;
14592;SDS011;7383;52.354;9.756;2023-04-16T07:25:19;13.80;;;11.95;;
14592;SDS011;7383;52.354;9.756;2023-04-16T07:27:45;11.50;;;10.40;;
14592;SDS011;7383;52.354;9.756;2023-04-16T07:30:14;11.43;;;10.32;;
14592;SDS011;7383;52.354;9.756;2023-04-16T07:32:41;11.85;;;10.70;;
14592;SDS011;7383;52.354;9.756;2023-04-16T07:35:08;13.23;;;12.00;;
14592;SDS011;7383;52.354;9.756;2023-04-16T07:37:35;11.95;;;10.75;;
14592;SDS011;7383;52.354;9.756;2023-04-16T07:40:04;11.70;;;10.63;;
14592;SDS011;7383;52.354;9.756;2023-04-16T07:42:31;11.48;;;10.38;;
14592;SDS011;7383;52.354;9.756;2023-04-16T07:44:58;12.30;;;11.10;;
14592;SDS011;7383;52.354;9.756;2023-04-16T07:47:27;11.05;;;10.05;;
14592;SDS011;7383;52.354;9.756;2023-04-16T07:49:54;11.73;;;10.52;;
14592;SDS011;7383;52.354;9.756;2023-04-16T07:52:21;11.45;;;10.35;;
14592;SDS011;7383;52.354;9.756;2023-04-16T07:54:47;11.85;;;10.75;;
14592;SDS011;7383;52.354;9.756;2023-04-16T07:57:17;12.10;;;11.00;;
14592;SDS011;7383;52.354;9.756;2023-04-16T07:59:43;10.65;;;9.55;;
14592;SDS011;7383;52.354;9.756;2023-04-16T08:02:14;11.50;;;10.45;;
14592;SDS011;7383;52.354;9.756;2023-04-16T08:04:46;12.18;;;10.98;;
14592;SDS011;7383;52.354;9.756;2023-04-16T08:07:13;10.80;;;9.80;;
14592;SDS011;7383;52.354;9.756;2023-04-16T08:09:46;11.13;;;10.02;;
14592;SDS011;7383;52.354;9.756;2023-04-16T08:12:18;11.05;;;10.00;;
14592;SDS011;7383;52.354;9.756;2023-04-16T08:15:02;11.95;;;10.80;;
14592;SDS011;7383;52.354;9.756;2023-04-16T08:17:43;11.40;;;10.30;;
14592;SDS011;7383;52.354;9.756;2023-04-16T08:43:38;9.75;;;8.85;;
14592;SDS011;7383;52.354;9.756;2023-04-16T08:54:55;12.63;;;11.38;;
14592;SDS011;7383;52.354;9.756;2023-04-16T08:57:29;11.98;;;10.88;;
14592;SDS011;7383;52.354;9.756;2023-04-16T09:00:08;12.02;;;10.93;;
14592;SDS011;7383;52.354;9.756;2023-04-16T09:02:41;12.43;;;11.13;;
14592;SDS011;7383;52.354;9.756;2023-04-16T09:05:14;10.95;;;9.95;;
14592;SDS011;7383;52.354;9.756;2023-04-16T09:07:43;10.95;;;9.95;;
14592;SDS011;7383;52.354;9.756;2023-04-16T09:10:49;10.32;;;9.32;;
14592;SDS011;7383;52.354;9.756;2023-04-16T09:13:20;11.25;;;10.15;;
14592;SDS011;7383;52.354;9.756;2023-04-16T09:15:52;11.40;;;10.30;;
14592;SDS011;7383;52.354;9.756;2023-04-16T09:18:23;10.30;;;9.40;;
14592;SDS011;7383;52.354;9.756;2023-04-16T09:20:53;12.68;;;11.40;;
14592;SDS011;7383;52.354;9.756;2023-04-16T09:23:23;12.82;;;11.65;;
14592;SDS011;7383;52.354;9.756;2023-04-16T09:25:50;12.43;;;11.23;;
14592;SDS011;7383;52.354;9.756;2023-04-16T09:28:38;12.05;;;10.93;;
14592;SDS011;7383;52.354;9.756;2023-04-16T09:31:08;11.45;;;10.35;;
14592;SDS011;7383;52.354;9.756;2023-04-16T09:33:36;14.18;;;12.85;;
14592;SDS011;7383;52.354;9.756;2023-04-16T09:36:05;13.10;;;11.90;;
14592;SDS011;7383;52.354;9.756;2023-04-16T09:38:44;12.23;;;10.98;;
14592;SDS011;7383;52.354;9.756;2023-04-16T09:41:12;11.60;;;10.50;;
14592;SDS011;7383;52.354;9.756;2023-04-16T09:43:41;12.40;;;11.20;;
14592;SDS011;7383;52.354;9.756;2023-04-16T09:46:15;10.98;;;9.98;;
14592;SDS011;7383;52.354;9.756;2023-04-16T09:48:42;15.63;;;14.07;;
14592;SDS011;7383;52.354;9.756;2023-04-16T09:51:14;13.73;;;12.43;;
14592;SDS011;7383;52.354;9.756;2023-04-16T09:53:41;13.80;;;12.48;;
14592;SDS011;7383;52.354;9.756;2023-04-16T09:56:30;11.93;;;10.85;;
14592;SDS011;7383;52.354;9.756;2023-04-16T09:59:04;11.77;;;10.65;;
14592;SDS011;7383;52.354;9.756;2023-04-16T10:01:32;12.20;;;10.93;;
14592;SDS011;7383;52.354;9.756;2023-04-16T10:03:59;11.70;;;10.70;;
14592;SDS011;7383;52.354;9.756;2023-04-16T10:06:30;11.63;;;10.63;;
14592;SDS011;7383;52.354;9.756;2023-04-16T10:09:01;12.75;;;11.48;;
14592;SDS011;7383;52.354;9.756;2023-04-16T10:11:33;12.30;;;11.20;;
14592;SDS011;7383;52.354;9.756;2023-04-16T10:14:00;11.75;;;10.75;;
14592;SDS011;7383;52.354;9.756;2023-04-16T10:16:33;13.07;;;11.75;;
14592;SDS011;7383;52.354;9.756;2023-04-16T10:19:04;13.00;;;11.80;;
14592;SDS011;7383;52.354;9.756;2023-04-16T10:21:42;14.55;;;13.15;;
14592;SDS011;7383;52.354;9.756;2023-04-16T10:24:18;12.40;;;11.30;;
14592;SDS011;7383;52.354;9.756;2023-04-16T10:26:45;12.93;;;11.82;;
14592;SDS011;7383;52.354;9.756;2023-04-16T10:29:15;12.05;;;10.95;;
14592;SDS011;7383;52.354;9.756;2023-04-16T10:31:43;14.45;;;13.05;;
14592;SDS011;7383;52.354;9.756;2023-04-16T10:34:10;14.82;;;13.43;;
14592;SDS011;7383;52.354;9.756;2023-04-16T10:36:37;12.48;;;11.38;;
14592;SDS011;7383;52.354;9.756;2023-04-16T10:39:08;13.90;;;12.50;;
14592;SDS011;7383;52.354;9.756;2023-04-16T10:41:36;14.07;;;12.68;;
14592;SDS011;7383;52.354;9.756;2023-04-16T10:44:03;13.75;;;12.45;;
14592;SDS011;7383;52.354;9.756;2023-04-16T10:46:35;15.35;;;13.88;;
14592;SDS011;7383;52.354;9.756;2023-04-16T10:49:12;13.85;;;12.57;;
14592;SDS011;7383;52.354;9.756;2023-04-16T10:51:40;14.27;;;12.98;;
14592;SDS011;7383;52.354;9.756;2023-04-16T10:54:18;15.23;;;13.73;;
14592;SDS011;7383;52.354;9.756;2023-04-16T10:56:49;16.60;;;15.02;;
14592;SDS011;7383;52.354;9.756;2023-04-16T10:59:16;14.68;;;13.30;;
14592;SDS011;7383;52.354;9.756;2023-04-16T11:01:45;13.90;;;12.60;;
14592;SDS011;7383;52.354;9.756;2023-04-16T11:04:27;14.18;;;12.98;;
14592;SDS011;7383;52.354;9.756;2023-04-16T11:07:02;14.38;;;12.98;;
14592;SDS011;7383;52.354;9.756;2023-04-16T11:09:43;14.27;;;12.95;;
14592;SDS011;7383;52.354;9.756;2023-04-16T11:12:11;14.07;;;12.68;;
14592;SDS011;7383;52.354;9.756;2023-04-16T11:14:39;12.85;;;11.65;;
14592;SDS011;7383;52.354;9.756;2023-04-16T11:17:06;14.00;;;12.68;;
14592;SDS011;7383;52.354;9.756;2023-04-16T11:19:35;14.55;;;13.15;;
14592;SDS011;7383;52.354;9.756;2023-04-16T11:22:02;13.55;;;12.27;;
14592;SDS011;7383;52.354;9.756;2023-04-16T11:24:29;14.07;;;12.77;;
14592;SDS011;7383;52.354;9.756;2023-04-16T11:26:56;14.40;;;13.00;;
14592;SDS011;7383;52.354;9.756;2023-04-16T11:29:22;14.88;;;13.45;;
14592;SDS011;7383;52.354;9.756;2023-04-16T11:31:49;14.45;;;13.10;;
14592;SDS011;7383;52.354;9.756;2023-04-16T11:34:17;13.70;;;12.30;;
14592;SDS011;7383;52.354;9.756;2023-04-16T11:36:46;14.88;;;13.50;;
14592;SDS011;7383;52.354;9.756;2023-04-16T11:39:13;13.48;;;12.15;;
14592;SDS011;7383;52.354;9.756;2023-04-16T11:41:43;13.45;;;12.23;;
14592;SDS011;7383;52.354;9.756;2023-04-16T11:44:16;14.98;;;13.57;;
14592;SDS011;7383;52.354;9.756;2023-04-16T11:46:44;14.20;;;12.88;;
14592;SDS011;7383;52.354;9.756;2023-04-16T11:49:10;15.90;;;14.45;;
14592;SDS011;7383;52.354;9.756;2023-04-16T11:51:40;15.10;;;13.60;;
14592;SDS011;7383;52.354;9.756;2023-04-16T11:54:08;14.73;;;13.27;;
14592;SDS011;7383;52.354;9.756;2023-04-16T11:56:35;13.52;;;12.32;;
14592;SDS011;7383;52.354;9.756;2023-04-16T11:59:08;14.43;;;13.02;;
14592;SDS011;7383;52.354;9.756;2023-04-16T12:01:36;14.70;;;13.40;;
14592;SDS011;7383;52.354;9.756;2023-04-16T12:04:04;13.70;;;12.48;;
14592;SDS011;7383;52.354;9.756;2023-04-16T12:06:32;14.77;;;13.30;;
14592;SDS011;7383;52.354;9.756;2023-04-16T12:08:58;16.02;;;14.45;;
14592;SDS011;7383;52.354;9.756;2023-04-16T12:11:39;18.90;;;16.08;;
14592;SDS011;7383;52.354;9.756;2023-04-16T12:14:06;21.05;;;17.63;;
14592;SDS011;7383;52.354;9.756;2023-04-16T12:16:34;19.98;;;17.52;;
14592;SDS011;7383;52.354;9.756;2023-04-16T12:19:00;18.45;;;15.93;;
14592;SDS011;7383;52.354;9.756;2023-04-16T12:21:35;19.42;;;16.85;;
14592;SDS011;7383;52.354;9.756;2023-04-16T12:24:02;16.80;;;15.00;;
14592;SDS011;7383;52.354;9.756;2023-04-16T12:26:34;15.50;;;13.77;;
14592;SDS011;7383;52.354;9.756;2023-04-16T12:29:21;14.60;;;13.20;;
14592;SDS011;7383;52.354;9.756;2023-04-16T12:31:49;14.60;;;13.20;;
14592;SDS011;7383;52.354;9.756;2023-04-16T12:34:17;15.10;;;13.65;;
14592;SDS011;7383;52.354;9.756;2023-04-16T12:36:45;13.88;;;12.57;;
14592;SDS011;7383;52.354;9.756;2023-04-16T12:39:13;14.95;;;13.55;;
14592;SDS011;7383;52.354;9.756;2023-04-16T12:41:42;15.65;;;14.15;;
14592;SDS011;7383;52.354;9.756;2023-04-16T12:44:10;14.25;;;12.88;;
14592;SDS011;7383;52.354;9.756;2023-04-16T12:46:38;15.32;;;13.95;;
14592;SDS011;7383;52.354;9.756;2023-04-16T12:49:05;15.60;;;14.10;;
14592;SDS011;7383;52.354;9.756;2023-04-16T12:51:33;13.77;;;12.50;;
14592;SDS011;7383;52.354;9.756;2023-04-16T12:54:01;14.55;;;13.25;;
14592;SDS011;7383;52.354;9.756;2023-04-16T12:56:29;13.52;;;12.30;;
14592;SDS011;7383;52.354;9.756;2023-04-16T12:58:58;14.10;;;12.80;;
14592;SDS011;7383;52.354;9.756;2023-04-16T13:01:25;14.02;;;12.73;;
14592;SDS011;7383;52.354;9.756;2023-04-16T13:03:51;14.48;;;13.07;;
14592;SDS011;7383;52.354;9.756;2023-04-16T13:06:17;13.85;;;12.45;;
14592;SDS011;7383;52.354;9.756;2023-04-16T13:08:45;14.60;;;13.25;;
14592;SDS011;7383;52.354;9.756;2023-04-16T13:11:11;14.25;;;12.95;;
14592;SDS011;7383;52.354;9.756;2023-04-16T13:13:38;14.15;;;12.82;;
14592;SDS011;7383;52.354;9.756;2023-04-16T13:16:08;13.75;;;12.52;;
14592;SDS011;7383;52.354;9.756;2023-04-16T13:18:34;13.68;;;12.38;;
14592;SDS011;7383;52.354;9.756;2023-04-16T13:21:02;15.55;;;14.05;;
14592;SDS011;7383;52.354;9.756;2023-04-16T13:23:29;14.52;;;13.18;;
14592;SDS011;7383;52.354;9.756;2023-04-16T13:25:55;13.48;;;12.23;;
14592;SDS011;7383;52.354;9.756;2023-04-16T13:28:22;14.00;;;12.70;;
14592;SDS011;7383;52.354;9.756;2023-04-16T13:30:51;13.77;;;12.48;;
14592;SDS011;7383;52.354;9.756;2023-04-16T13:33:19;13.65;;;12.45;;
14592;SDS011;7383;52.354;9.756;2023-04-16T13:35:47;13.55;;;12.45;;
14592;SDS011;7383;52.354;9.756;2023-04-16T13:38:14;12.73;;;11.63;;
14592;SDS011;7383;52.354;9.756;2023-04-16T13:40:40;13.45;;;12.25;;
14592;SDS011;7383;52.354;9.756;2023-04-16T13:43:07;13.82;;;12.57;;
14592;SDS011;7383;52.354;9.756;2023-04-16T13:45:33;13.25;;;12.07;;
14592;SDS011;7383;52.354;9.756;2023-04-16T13:48:00;12.95;;;11.85;;
14592;SDS011;7383;52.354;9.756;2023-04-16T13:50:28;12.32;;;11.23;;
14592;SDS011;7383;52.354;9.756;2023-04-16T13:52:55;13.00;;;11.80;;
14592;SDS011;7383;52.354;9.756;2023-04-16T13:55:21;12.38;;;11.32;;
14592;SDS011;7383;52.354;9.756;2023-04-16T13:57:48;12.32;;;11.32;;
14592;SDS011;7383;52.354;9.756;2023-04-16T14:00:16;10.80;;;9.90;;
14592;SDS011;7383;52.354;9.756;2023-04-16T14:02:43;10.80;;;9.90;;
14592;SDS011;7383;52.354;9.756;2023-04-16T14:05:13;11.80;;;10.80;;
14592;SDS011;7383;52.354;9.756;2023-04-16T14:07:42;10.80;;;9.90;;
14592;SDS011;7383;52.354;9.756;2023-04-16T14:10:09;10.63;;;9.73;;
14592;SDS011;7383;52.354;9.756;2023-04-16T14:12:36;10.50;;;9.57;;
14592;SDS011;7383;52.354;9.756;2023-04-16T14:15:04;8.98;;;8.27;;
14592;SDS011;7383;52.354;9.756;2023-04-16T14:17:33;10.00;;;9.20;;
14592;SDS011;7383;52.354;9.756;2023-04-16T14:20:00;9.30;;;8.52;;
14592;SDS011;7383;52.354;9.756;2023-04-16T14:22:26;8.75;;;8.05;;
14592;SDS011;7383;52.354;9.756;2023-04-16T14:24:54;9.00;;;8.25;;
14592;SDS011;7383;52.354;9.756;2023-04-16T14:27:21;8.02;;;7.38;;
14592;SDS011;7383;52.354;9.756;2023-04-16T14:29:47;8.30;;;7.70;;
14592;SDS011;7383;52.354;9.756;2023-04-16T14:32:14;8.07;;;7.47;;
14592;SDS011;7383;52.354;9.756;2023-04-16T14:34:43;8.85;;;8.15;;
14592;SDS011;7383;52.354;9.756;2023-04-16T14:37:10;9.00;;;8.30;;
14592;SDS011;7383;52.354;9.756;2023-04-16T14:39:36;8.60;;;7.80;;
14592;SDS011;7383;52.354;9.756;2023-04-16T14:42:05;9.98;;;9.07;;
14592;SDS011;7383;52.354;9.756;2023-04-16T14:44:31;8.73;;;8.00;;
14592;SDS011;7383;52.354;9.756;2023-04-16T14:46:58;8.00;;;7.40;;
14592;SDS011;7383;52.354;9.756;2023-04-16T14:49:25;7.43;;;6.82;;
14592;SDS011;7383;52.354;9.756;2023-04-16T14:51:51;9.02;;;8.30;;
14592;SDS011;7383;52.354;9.756;2023-04-16T14:54:20;8.18;;;7.57;;
14592;SDS011;7383;52.354;9.756;2023-04-16T14:56:47;8.13;;;7.50;;
14592;SDS011;7383;52.354;9.756;2023-04-16T14:59:17;7.47;;;6.88;;
14592;SDS011;7383;52.354;9.756;2023-04-16T15:01:44;8.48;;;7.80;;
14592;SDS011;7383;52.354;9.756;2023-04-16T15:04:11;8.40;;;7.72;;
14592;SDS011;7383;52.354;9.756;2023-04-16T15:06:37;8.65;;;7.95;;
14592;SDS011;7383;52.354;9.756;2023-04-16T15:09:05;8.43;;;7.72;;
14592;SDS011;7383;52.354;9.756;2023-04-16T15:11:32;8.43;;;7.72;;
14592;SDS011;7383;52.354;9.756;2023-04-16T15:13:58;8.68;;;7.97;;
14592;SDS011;7383;52.354;9.756;2023-04-16T15:16:26;9.55;;;8.82;;
14592;SDS011;7383;52.354;9.756;2023-04-16T15:18:53;8.40;;;7.80;;
14592;SDS011;7383;52.354;9.756;2023-04-16T15:21:19;8.52;;;7.80;;
14592;SDS011;7383;52.354;9.756;2023-04-16T15:23:46;8.27;;;7.57;;
14592;SDS011;7383;52.354;9.756;2023-04-16T15:26:12;7.97;;;7.38;;
14592;SDS011;7383;52.354;9.756;2023-04-16T15:28:39;7.97;;;7.38;;
14592;SDS011;7383;52.354;9.756;2023-04-16T15:31:05;7.80;;;7.20;;
14592;SDS011;7383;52.354;9.756;2023-04-16T15:33:33;8.80;;;8.15;;
14592;SDS011;7383;52.354;9.756;2023-04-16T15:36:00;7.95;;;7.35;;
14592;SDS011;7383;52.354;9.756;2023-04-16T15:38:26;8.90;;;8.15;;
14592;SDS011;7383;52.354;9.756;2023-04-16T15:40:53;9.38;;;8.57;;
14592;SDS011;7383;52.354;9.756;2023-04-16T15:43:20;8.02;;;7.43;;
14592;SDS011;7383;52.354;9.756;2023-04-16T15:45:46;8.43;;;7.60;;
14592;SDS011;7383;52.354;9.756;2023-04-16T15:48:13;8.30;;;7.70;;
14592;SDS011;7383;52.354;9.756;2023-04-16T15:50:41;8.15;;;7.55;;
14592;SDS011;7383;52.354;9.756;2023-04-16T15:53:07;7.32;;;6.72;;
14592;SDS011;7383;52.354;9.756;2023-04-16T15:55:34;7.20;;;6.60;;
14592;SDS011;7383;52.354;9.756;2023-04-16T15:58:01;7.43;;;6.93;;
14592;SDS011;7383;52.354;9.756;2023-04-16T16:00:28;7.35;;;6.85;;
14592;SDS011;7383;52.354;9.756;2023-04-16T16:02:55;6.25;;;5.80;;
14592;SDS011;7383;52.354;9.756;2023-04-16T16:05:22;7.45;;;6.85;;
14592;SDS011;7383;52.354;9.756;2023-04-16T16:07:57;6.97;;;6.47;;
14592;SDS011;7383;52.354;9.756;2023-04-16T16:10:26;6.00;;;5.50;;
14592;SDS011;7383;52.354;9.756;2023-04-16T16:12:53;5.70;;;5.30;;
14592;SDS011;7383;52.354;9.756;2023-04-16T16:15:21;5.78;;;5.30;;
14592;SDS011;7383;52.354;9.756;2023-04-16T16:17:47;5.53;;;5.03;;
14592;SDS011;7383;52.354;9.756;2023-04-16T16:20:17;5.07;;;4.68;;
14592;SDS011;7383;52.354;9.756;2023-04-16T16:22:43;5.03;;;4.63;;
14592;SDS011;7383;52.354;9.756;2023-04-16T16:25:15;5.10;;;4.70;;
14592;SDS011;7383;52.354;9.756;2023-04-16T16:27:42;4.55;;;4.25;;
14592;SDS011;7383;52.354;9.756;2023-04-16T16:30:09;4.70;;;4.40;;
14592;SDS011;7383;52.354;9.756;2023-04-16T16:32:36;4.47;;;4.18;;
14592;SDS011;7383;52.354;9.756;2023-04-16T16:35:05;4.10;;;3.80;;
14592;SDS011;7383;52.354;9.756;2023-04-16T16:37:32;4.43;;;4.05;;
14592;SDS011;7383;52.354;9.756;2023-04-16T16:40:00;3.88;;;3.63;;
14592;SDS011;7383;52.354;9.756;2023-04-16T16:42:29;3.97;;;3.72;;
14592;SDS011;7383;52.354;9.756;2023-04-16T16:44:57;4.30;;;4.00;;
14592;SDS011;7383;52.354;9.756;2023-04-16T16:47:58;4.38;;;3.97;;
14592;SDS011;7383;52.354;9.756;2023-04-16T16:50:38;4.13;;;3.83;;
14592;SDS011;7383;52.354;9.756;2023-04-16T16:53:24;4.22;;;3.92;;
14592;SDS011;7383;52.354;9.756;2023-04-16T17:02:37;4.63;;;4.30;;
14592;SDS011;7383;52.354;9.756;2023-04-16T17:05:27;4.75;;;4.40;;
14592;SDS011;7383;52.354;9.756;2023-04-16T17:07:56;4.20;;;3.90;;
14592;SDS011;7383;52.354;9.756;2023-04-16T17:10:28;4.00;;;3.60;;
14592;SDS011;7383;52.354;9.756;2023-04-16T17:13:25;4.70;;;4.30;;
14592;SDS011;7383;52.354;9.756;2023-04-16T17:25:23;3.65;;;3.45;;
14592;SDS011;7383;52.354;9.756;2023-04-16T17:27:55;4.10;;;3.80;;
14592;SDS011;7383;52.354;9.756;2023-04-16T17:31:19;3.67;;;3.47;;
14592;SDS011;7383;52.354;9.756;2023-04-16T18:26:39;6.07;;;5.57;;
14592;SDS011;7383;52.354;9.756;2023-04-16T18:29:10;5.55;;;5.05;;
14592;SDS011;7383;52.354;9.756;2023-04-16T18:31:43;5.60;;;5.20;;
14592;SDS011;7383;52.354;9.756;2023-04-16T18:34:16;6.18;;;5.68;;
14592;SDS011;7383;52.354;9.756;2023-04-16T18:36:54;5.80;;;5.40;;
14592;SDS011;7383;52.354;9.756;2023-04-16T18:39:34;6.68;;;6.18;;
14592;SDS011;7383;52.354;9.756;2023-04-16T18:42:20;6.95;;;6.35;;
14592;SDS011;7383;52.354;9.756;2023-04-16T18:45:16;5.68;;;5.18;;
14592;SDS011;7383;52.354;9.756;2023-04-16T18:47:48;5.90;;;5.47;;
14592;SDS011;7383;52.354;9.756;2023-04-16T18:50:27;5.93;;;5.53;;
14592;SDS011;7383;52.354;9.756;2023-04-16T18:52:58;6.32;;;5.82;;
14592;SDS011;7383;52.354;9.756;2023-04-16T18:55:36;6.03;;;5.55;;
14592;SDS011;7383;52.354;9.756;2023-04-16T18:58:21;6.30;;;5.80;;
14592;SDS011;7383;52.354;9.756;2023-04-16T19:00:54;5.95;;;5.47;;
14592;SDS011;7383;52.354;9.756;2023-04-16T19:03:28;6.65;;;6.07;;
14592;SDS011;7383;52.354;9.756;2023-04-16T19:06:01;5.93;;;5.43;;
14592;SDS011;7383;52.354;9.756;2023-04-16T19:09:06;6.10;;;5.60;;
14592;SDS011;7383;52.354;9.756;2023-04-16T19:11:40;6.32;;;5.82;;
14592;SDS011;7383;52.354;9.756;2023-04-16T19:14:21;6.45;;;5.95;;
14592;SDS011;7383;52.354;9.756;2023-04-16T19:17:13;5.50;;;5.10;;